sensor_id;sensor_type;location;lat;lon;timestamp;P1;durP1;ratioP1;P2;durP2;ratioP2
77078;SDS011;66004;55.096;38.760;2023-04-01T01:55:26;12.20;;;4.63;;
77078;SDS011;66004;55.096;38.760;2023-04-01T01:58:05;14.88;;;6.40;;
77078;SDS011;66004;55.096;38.760;2023-04-01T02:00:37;15.63;;;7.20;;
77078;SDS011;66004;55.096;38.760;2023-04-01T02:03:03;14.13;;;6.97;;
77078;SDS011;66004;55.096;38.760;2023-04-01T02:05:29;13.70;;;6.05;;
77078;SDS011;66004;55.096;38.760;2023-04-01T02:08:07;18.65;;;6.95;;
77078;SDS011;66004;55.096;38.760;2023-04-01T02:10:37;17.75;;;6.70;;
77078;SDS011;66004;55.096;38.760;2023-04-01T02:13:10;18.70;;;8.05;;
77078;SDS011;66004;55.096;38.760;2023-04-01T02:15:44;17.20;;;7.03;;
77078;SDS011;66004;55.096;38.760;2023-04-01T02:18:13;15.35;;;6.38;;
77078;SDS011;66004;55.096;38.760;2023-04-01T02:20:41;17.33;;;7.05;;
77078;SDS011;66004;55.096;38.760;2023-04-01T02:23:08;15.18;;;7.47;;
77078;SDS011;66004;55.096;38.760;2023-04-01T02:25:36;19.08;;;7.38;;
77078;SDS011;66004;55.096;38.760;2023-04-01T02:28:04;18.13;;;8.02;;
77078;SDS011;66004;55.096;38.760;2023-04-01T02:30:32;20.25;;;7.70;;
77078;SDS011;66004;55.096;38.760;2023-04-01T02:33:00;18.15;;;7.22;;
77078;SDS011;66004;55.096;38.760;2023-04-01T02:35:27;17.60;;;7.88;;
77078;SDS011;66004;55.096;38.760;2023-04-01T02:37:53;18.80;;;7.90;;
77078;SDS011;66004;55.096;38.760;2023-04-01T02:40:19;16.92;;;7.93;;
77078;SDS011;66004;55.096;38.760;2023-04-01T02:45:11;18.65;;;7.53;;
77078;SDS011;66004;55.096;38.760;2023-04-01T02:47:38;15.77;;;7.63;;
77078;SDS011;66004;55.096;38.760;2023-04-01T02:52:43;21.88;;;7.35;;
77078;SDS011;66004;55.096;38.760;2023-04-01T02:55:08;16.77;;;7.22;;
77078;SDS011;66004;55.096;38.760;2023-04-01T02:57:34;18.92;;;8.00;;
77078;SDS011;66004;55.096;38.760;2023-04-01T02:59:59;17.75;;;7.35;;
77078;SDS011;66004;55.096;38.760;2023-04-01T03:02:25;18.80;;;8.00;;
77078;SDS011;66004;55.096;38.760;2023-04-01T03:04:51;16.70;;;6.82;;
77078;SDS011;66004;55.096;38.760;2023-04-01T03:07:16;17.92;;;7.25;;
77078;SDS011;66004;55.096;38.760;2023-04-01T03:09:42;18.63;;;7.88;;
77078;SDS011;66004;55.096;38.760;2023-04-01T03:12:07;17.77;;;7.75;;
77078;SDS011;66004;55.096;38.760;2023-04-01T03:14:33;18.77;;;7.15;;
77078;SDS011;66004;55.096;38.760;2023-04-01T03:16:58;18.33;;;8.20;;
77078;SDS011;66004;55.096;38.760;2023-04-01T03:19:24;20.35;;;8.30;;
77078;SDS011;66004;55.096;38.760;2023-04-01T03:21:49;18.42;;;7.50;;
77078;SDS011;66004;55.096;38.760;2023-04-01T03:24:15;20.17;;;7.28;;
77078;SDS011;66004;55.096;38.760;2023-04-01T03:26:40;22.98;;;8.77;;
77078;SDS011;66004;55.096;38.760;2023-04-01T03:29:06;22.52;;;9.30;;
77078;SDS011;66004;55.096;38.760;2023-04-01T03:31:31;20.83;;;7.55;;
77078;SDS011;66004;55.096;38.760;2023-04-01T03:33:56;20.38;;;8.27;;
77078;SDS011;66004;55.096;38.760;2023-04-01T03:36:22;19.80;;;7.80;;
77078;SDS011;66004;55.096;38.760;2023-04-01T03:38:47;21.17;;;8.07;;
77078;SDS011;66004;55.096;38.760;2023-04-01T03:41:14;24.48;;;8.35;;
77078;SDS011;66004;55.096;38.760;2023-04-01T03:43:40;23.27;;;8.60;;
77078;SDS011;66004;55.096;38.760;2023-04-01T03:46:06;20.15;;;8.57;;
77078;SDS011;66004;55.096;38.760;2023-04-01T03:48:32;19.85;;;8.27;;
77078;SDS011;66004;55.096;38.760;2023-04-01T03:50:57;18.92;;;8.68;;
77078;SDS011;66004;55.096;38.760;2023-04-01T03:53:23;21.52;;;8.38;;
77078;SDS011;66004;55.096;38.760;2023-04-01T03:55:49;19.42;;;8.68;;
77078;SDS011;66004;55.096;38.760;2023-04-01T03:58:16;21.83;;;8.65;;
77078;SDS011;66004;55.096;38.760;2023-04-01T04:03:08;22.98;;;7.93;;
77078;SDS011;66004;55.096;38.760;2023-04-01T04:05:33;27.30;;;9.45;;
77078;SDS011;66004;55.096;38.760;2023-04-01T04:07:59;18.80;;;8.18;;
77078;SDS011;66004;55.096;38.760;2023-04-01T04:10:25;24.33;;;9.32;;
77078;SDS011;66004;55.096;38.760;2023-04-01T04:12:51;22.38;;;8.30;;
77078;SDS011;66004;55.096;38.760;2023-04-01T04:15:16;20.80;;;8.57;;
77078;SDS011;66004;55.096;38.760;2023-04-01T04:17:42;21.88;;;9.23;;
77078;SDS011;66004;55.096;38.760;2023-04-01T04:20:09;23.30;;;8.48;;
77078;SDS011;66004;55.096;38.760;2023-04-01T04:22:35;18.98;;;8.55;;
77078;SDS011;66004;55.096;38.760;2023-04-01T04:25:00;19.48;;;8.32;;
77078;SDS011;66004;55.096;38.760;2023-04-01T04:27:26;23.17;;;9.18;;
77078;SDS011;66004;55.096;38.760;2023-04-01T04:29:51;21.92;;;8.95;;
77078;SDS011;66004;55.096;38.760;2023-04-01T04:32:17;22.90;;;8.88;;
77078;SDS011;66004;55.096;38.760;2023-04-01T04:34:42;21.65;;;8.68;;
77078;SDS011;66004;55.096;38.760;2023-04-01T04:37:08;23.17;;;8.40;;
77078;SDS011;66004;55.096;38.760;2023-04-01T04:39:33;17.67;;;7.90;;
77078;SDS011;66004;55.096;38.760;2023-04-01T04:41:59;26.77;;;9.48;;
77078;SDS011;66004;55.096;38.760;2023-04-01T04:44:24;20.40;;;9.20;;
77078;SDS011;66004;55.096;38.760;2023-04-01T04:46:50;19.13;;;8.18;;
77078;SDS011;66004;55.096;38.760;2023-04-01T04:49:16;21.92;;;8.50;;
77078;SDS011;66004;55.096;38.760;2023-04-01T04:51:42;20.73;;;9.27;;
77078;SDS011;66004;55.096;38.760;2023-04-01T04:54:08;20.58;;;8.60;;
77078;SDS011;66004;55.096;38.760;2023-04-01T04:56:33;21.85;;;9.00;;
77078;SDS011;66004;55.096;38.760;2023-04-01T04:59:01;21.48;;;8.65;;
77078;SDS011;66004;55.096;38.760;2023-04-01T05:01:26;19.00;;;7.50;;
77078;SDS011;66004;55.096;38.760;2023-04-01T05:03:52;20.80;;;8.25;;
77078;SDS011;66004;55.096;38.760;2023-04-01T05:06:18;19.40;;;7.68;;
77078;SDS011;66004;55.096;38.760;2023-04-01T05:08:45;17.27;;;7.47;;
77078;SDS011;66004;55.096;38.760;2023-04-01T05:11:15;16.67;;;7.40;;
77078;SDS011;66004;55.096;38.760;2023-04-01T05:13:42;20.33;;;7.63;;
77078;SDS011;66004;55.096;38.760;2023-04-01T05:16:09;17.73;;;7.10;;
77078;SDS011;66004;55.096;38.760;2023-04-01T05:18:36;16.67;;;6.30;;
77078;SDS011;66004;55.096;38.760;2023-04-01T05:21:01;15.95;;;7.00;;
77078;SDS011;66004;55.096;38.760;2023-04-01T05:23:27;13.50;;;6.38;;
77078;SDS011;66004;55.096;38.760;2023-04-01T05:25:52;17.23;;;6.70;;
77078;SDS011;66004;55.096;38.760;2023-04-01T05:28:18;16.48;;;6.65;;
77078;SDS011;66004;55.096;38.760;2023-04-01T05:30:45;16.27;;;6.78;;
77078;SDS011;66004;55.096;38.760;2023-04-01T05:33:11;17.75;;;6.40;;
77078;SDS011;66004;55.096;38.760;2023-04-01T05:35:38;14.20;;;5.90;;
77078;SDS011;66004;55.096;38.760;2023-04-01T05:38:05;15.43;;;6.07;;
77078;SDS011;66004;55.096;38.760;2023-04-01T05:40:31;12.85;;;5.45;;
77078;SDS011;66004;55.096;38.760;2023-04-01T05:42:57;10.75;;;5.13;;
77078;SDS011;66004;55.096;38.760;2023-04-01T05:45:23;14.52;;;6.45;;
77078;SDS011;66004;55.096;38.760;2023-04-01T05:47:49;15.90;;;9.85;;
77078;SDS011;66004;55.096;38.760;2023-04-01T05:50:15;15.52;;;5.53;;
77078;SDS011;66004;55.096;38.760;2023-04-01T05:52:40;14.27;;;5.60;;
77078;SDS011;66004;55.096;38.760;2023-04-01T05:55:06;12.55;;;5.47;;
77078;SDS011;66004;55.096;38.760;2023-04-01T05:59:57;10.23;;;4.60;;
77078;SDS011;66004;55.096;38.760;2023-04-01T06:02:23;10.55;;;4.80;;
77078;SDS011;66004;55.096;38.760;2023-04-01T06:04:49;10.15;;;4.32;;
77078;SDS011;66004;55.096;38.760;2023-04-01T06:07:19;11.05;;;4.78;;
77078;SDS011;66004;55.096;38.760;2023-04-01T06:09:44;10.48;;;5.07;;
77078;SDS011;66004;55.096;38.760;2023-04-01T06:12:16;9.90;;;4.43;;
77078;SDS011;66004;55.096;38.760;2023-04-01T06:26:25;7.00;;;3.80;;
77078;SDS011;66004;55.096;38.760;2023-04-01T06:29:08;8.88;;;3.75;;
77078;SDS011;66004;55.096;38.760;2023-04-01T06:32:09;7.18;;;3.63;;
77078;SDS011;66004;55.096;38.760;2023-04-01T06:54:26;5.60;;;3.13;;
77078;SDS011;66004;55.096;38.760;2023-04-01T06:57:02;8.60;;;3.75;;
77078;SDS011;66004;55.096;38.760;2023-04-01T06:59:37;5.25;;;2.90;;
77078;SDS011;66004;55.096;38.760;2023-04-01T07:04:36;7.50;;;3.35;;
77078;SDS011;66004;55.096;38.760;2023-04-01T07:09:41;4.68;;;3.33;;
77078;SDS011;66004;55.096;38.760;2023-04-01T07:15:02;5.68;;;3.67;;
77078;SDS011;66004;55.096;38.760;2023-04-01T07:17:39;5.30;;;2.83;;
77078;SDS011;66004;55.096;38.760;2023-04-01T07:20:51;7.25;;;4.18;;
77078;SDS011;66004;55.096;38.760;2023-04-01T07:23:01;8.90;;;4.20;;
77078;SDS011;66004;55.096;38.760;2023-04-01T07:25:37;6.00;;;3.97;;
77078;SDS011;66004;55.096;38.760;2023-04-01T07:28:11;5.97;;;3.88;;
77078;SDS011;66004;55.096;38.760;2023-04-01T07:36:53;6.03;;;3.65;;
77078;SDS011;66004;55.096;38.760;2023-04-01T07:50:47;6.13;;;3.67;;
77078;SDS011;66004;55.096;38.760;2023-04-01T08:04:50;6.13;;;4.10;;
77078;SDS011;66004;55.096;38.760;2023-04-01T08:07:25;7.15;;;4.32;;
77078;SDS011;66004;55.096;38.760;2023-04-01T08:12:58;7.97;;;4.50;;
77078;SDS011;66004;55.096;38.760;2023-04-01T08:25:37;8.73;;;5.05;;
77078;SDS011;66004;55.096;38.760;2023-04-01T08:28:17;30.42;;;16.02;;
77078;SDS011;66004;55.096;38.760;2023-04-01T08:30:56;10.00;;;5.30;;
77078;SDS011;66004;55.096;38.760;2023-04-01T08:33:31;11.68;;;6.38;;
77078;SDS011;66004;55.096;38.760;2023-04-01T08:36:05;8.00;;;4.65;;
77078;SDS011;66004;55.096;38.760;2023-04-01T08:38:40;9.15;;;5.03;;
77078;SDS011;66004;55.096;38.760;2023-04-01T09:27:45;7.78;;;4.85;;
77078;SDS011;66004;55.096;38.760;2023-04-01T09:44:35;7.13;;;4.10;;
77078;SDS011;66004;55.096;38.760;2023-04-01T10:09:22;11.95;;;5.68;;
77078;SDS011;66004;55.096;38.760;2023-04-01T10:20:45;9.18;;;5.10;;
77078;SDS011;66004;55.096;38.760;2023-04-01T10:34:39;9.90;;;4.85;;
77078;SDS011;66004;55.096;38.760;2023-04-01T10:37:15;12.13;;;5.68;;
77078;SDS011;66004;55.096;38.760;2023-04-01T10:43:44;8.43;;;5.13;;
77078;SDS011;66004;55.096;38.760;2023-04-01T10:54:49;10.30;;;5.20;;
77078;SDS011;66004;55.096;38.760;2023-04-01T11:30:41;6.05;;;3.97;;
77078;SDS011;66004;55.096;38.760;2023-04-01T11:41:56;8.25;;;4.10;;
77078;SDS011;66004;55.096;38.760;2023-04-01T11:44:36;9.57;;;4.57;;
77078;SDS011;66004;55.096;38.760;2023-04-01T11:50:18;10.05;;;5.15;;
77078;SDS011;66004;55.096;38.760;2023-04-01T11:56:03;10.93;;;4.80;;
77078;SDS011;66004;55.096;38.760;2023-04-01T12:12:22;10.70;;;5.75;;
77078;SDS011;66004;55.096;38.760;2023-04-01T12:15:02;10.20;;;5.63;;
77078;SDS011;66004;55.096;38.760;2023-04-01T12:21:07;9.98;;;5.50;;
77078;SDS011;66004;55.096;38.760;2023-04-01T12:37:55;17.80;;;6.75;;
77078;SDS011;66004;55.096;38.760;2023-04-01T12:49:03;11.77;;;7.43;;
77078;SDS011;66004;55.096;38.760;2023-04-01T12:51:45;12.45;;;7.90;;
77078;SDS011;66004;55.096;38.760;2023-04-01T13:00:40;16.95;;;8.85;;
77078;SDS011;66004;55.096;38.760;2023-04-01T13:03:32;17.65;;;9.52;;
77078;SDS011;66004;55.096;38.760;2023-04-01T13:12:04;14.20;;;8.30;;
77078;SDS011;66004;55.096;38.760;2023-04-01T13:18:07;16.02;;;8.45;;
77078;SDS011;66004;55.096;38.760;2023-04-01T13:20:50;15.57;;;8.80;;
77078;SDS011;66004;55.096;38.760;2023-04-01T13:37:50;15.52;;;8.88;;
77078;SDS011;66004;55.096;38.760;2023-04-01T13:40:31;12.75;;;7.65;;
77078;SDS011;66004;55.096;38.760;2023-04-01T13:43:11;14.90;;;8.43;;
77078;SDS011;66004;55.096;38.760;2023-04-01T14:01:49;12.70;;;6.75;;
77078;SDS011;66004;55.096;38.760;2023-04-01T14:10:05;27.38;;;11.40;;
77078;SDS011;66004;55.096;38.760;2023-04-01T14:28:49;12.57;;;6.82;;
77078;SDS011;66004;55.096;38.760;2023-04-01T14:36:45;14.98;;;6.75;;
77078;SDS011;66004;55.096;38.760;2023-04-01T20:16:06;21.13;;;9.05;;
77078;SDS011;66004;55.096;38.760;2023-04-01T20:18:36;21.02;;;9.63;;
77078;SDS011;66004;55.096;38.760;2023-04-01T20:21:15;18.88;;;10.50;;
77078;SDS011;66004;55.096;38.760;2023-04-01T20:26:34;17.08;;;8.90;;
77078;SDS011;66004;55.096;38.760;2023-04-01T20:31:41;19.15;;;9.68;;
77078;SDS011;66004;55.096;38.760;2023-04-01T20:48:07;22.20;;;9.65;;
77078;SDS011;66004;55.096;38.760;2023-04-01T20:53:04;20.48;;;9.68;;
77078;SDS011;66004;55.096;38.760;2023-04-01T20:55:50;23.05;;;10.27;;
77078;SDS011;66004;55.096;38.760;2023-04-01T21:06:41;22.73;;;9.88;;
77078;SDS011;66004;55.096;38.760;2023-04-01T21:09:17;26.58;;;11.43;;
77078;SDS011;66004;55.096;38.760;2023-04-01T21:16:57;24.33;;;10.73;;
77078;SDS011;66004;55.096;38.760;2023-04-01T21:39:47;29.63;;;12.43;;
77078;SDS011;66004;55.096;38.760;2023-04-01T21:56:06;34.08;;;13.65;;
77078;SDS011;66004;55.096;38.760;2023-04-01T22:07:20;30.13;;;12.95;;
77078;SDS011;66004;55.096;38.760;2023-04-01T22:12:38;32.03;;;12.18;;
77078;SDS011;66004;55.096;38.760;2023-04-01T22:15:47;29.02;;;11.95;;
77078;SDS011;66004;55.096;38.760;2023-04-01T22:18:29;34.55;;;13.00;;
77078;SDS011;66004;55.096;38.760;2023-04-01T22:21:10;33.38;;;13.73;;
77078;SDS011;66004;55.096;38.760;2023-04-01T22:26:26;33.63;;;13.68;;
77078;SDS011;66004;55.096;38.760;2023-04-01T22:31:53;28.55;;;13.30;;
77078;SDS011;66004;55.096;38.760;2023-04-01T22:40:06;30.67;;;12.57;;
77078;SDS011;66004;55.096;38.760;2023-04-01T22:42:43;28.88;;;13.43;;
77078;SDS011;66004;55.096;38.760;2023-04-01T22:53:53;33.50;;;13.63;;
77078;SDS011;66004;55.096;38.760;2023-04-01T22:56:33;33.17;;;13.10;;
77078;SDS011;66004;55.096;38.760;2023-04-01T22:59:10;35.83;;;15.32;;
77078;SDS011;66004;55.096;38.760;2023-04-01T23:01:45;40.60;;;13.65;;
77078;SDS011;66004;55.096;38.760;2023-04-01T23:04:17;29.60;;;13.68;;
77078;SDS011;66004;55.096;38.760;2023-04-01T23:06:52;34.13;;;14.32;;
77078;SDS011;66004;55.096;38.760;2023-04-01T23:09:26;36.60;;;15.77;;
77078;SDS011;66004;55.096;38.760;2023-04-01T23:14:32;30.05;;;14.27;;
77078;SDS011;66004;55.096;38.760;2023-04-01T23:33:10;36.78;;;15.68;;
77078;SDS011;66004;55.096;38.760;2023-04-01T23:38:18;35.10;;;15.00;;
77078;SDS011;66004;55.096;38.760;2023-04-01T23:40:47;37.00;;;14.20;;
77078;SDS011;66004;55.096;38.760;2023-04-01T23:43:28;33.95;;;15.18;;
77078;SDS011;66004;55.096;38.760;2023-04-01T23:45:57;37.60;;;15.00;;
77078;SDS011;66004;55.096;38.760;2023-04-01T23:48:43;37.53;;;14.60;;
77078;SDS011;66004;55.096;38.760;2023-04-01T23:51:27;32.33;;;13.70;;
77078;SDS011;66004;55.096;38.760;2023-04-01T23:54:03;33.90;;;14.77;;
77078;SDS011;66004;55.096;38.760;2023-04-01T23:56:48;38.70;;;15.13;;
77078;SDS011;66004;55.096;38.760;2023-04-01T23:59:18;36.05;;;15.35;;
